sensor_id;sensor_type;location;lat;lon;timestamp;P1;durP1;ratioP1;P2;durP2;ratioP2
12535;SDS011;6334;48.696;2.114;2024-03-07T00:00:06;16.20;;;9.27;;
12535;SDS011;6334;48.696;2.114;2024-03-07T00:02:42;14.73;;;9.40;;
12535;SDS011;6334;48.696;2.114;2024-03-07T00:05:15;15.07;;;9.27;;
12535;SDS011;6334;48.696;2.114;2024-03-07T00:07:47;13.80;;;9.33;;
12535;SDS011;6334;48.696;2.114;2024-03-07T00:10:17;14.23;;;9.03;;
12535;SDS011;6334;48.696;2.114;2024-03-07T00:12:47;15.57;;;9.53;;
12535;SDS011;6334;48.696;2.114;2024-03-07T00:15:18;14.33;;;9.17;;
12535;SDS011;6334;48.696;2.114;2024-03-07T00:17:48;14.23;;;10.10;;
12535;SDS011;6334;48.696;2.114;2024-03-07T00:20:19;13.23;;;9.03;;
12535;SDS011;6334;48.696;2.114;2024-03-07T00:22:49;15.00;;;9.33;;
12535;SDS011;6334;48.696;2.114;2024-03-07T00:25:20;15.07;;;9.73;;
12535;SDS011;6334;48.696;2.114;2024-03-07T00:27:50;13.77;;;9.10;;
12535;SDS011;6334;48.696;2.114;2024-03-07T00:30:21;12.17;;;8.87;;
12535;SDS011;6334;48.696;2.114;2024-03-07T00:32:51;13.10;;;8.83;;
12535;SDS011;6334;48.696;2.114;2024-03-07T00:35:22;12.30;;;8.87;;
12535;SDS011;6334;48.696;2.114;2024-03-07T00:37:52;13.23;;;9.17;;
12535;SDS011;6334;48.696;2.114;2024-03-07T00:40:22;13.60;;;8.97;;
12535;SDS011;6334;48.696;2.114;2024-03-07T00:42:53;12.67;;;8.67;;
12535;SDS011;6334;48.696;2.114;2024-03-07T00:45:23;14.13;;;9.40;;
12535;SDS011;6334;48.696;2.114;2024-03-07T00:47:54;14.07;;;8.83;;
12535;SDS011;6334;48.696;2.114;2024-03-07T00:50:24;12.53;;;8.87;;
12535;SDS011;6334;48.696;2.114;2024-03-07T00:52:55;13.20;;;9.37;;
12535;SDS011;6334;48.696;2.114;2024-03-07T00:55:25;13.80;;;8.40;;
12535;SDS011;6334;48.696;2.114;2024-03-07T00:57:56;11.80;;;8.20;;
12535;SDS011;6334;48.696;2.114;2024-03-07T01:00:26;13.27;;;8.33;;
12535;SDS011;6334;48.696;2.114;2024-03-07T01:02:57;12.93;;;8.83;;
12535;SDS011;6334;48.696;2.114;2024-03-07T01:05:27;13.13;;;9.13;;
12535;SDS011;6334;48.696;2.114;2024-03-07T01:07:58;12.47;;;8.73;;
12535;SDS011;6334;48.696;2.114;2024-03-07T01:10:28;12.63;;;8.50;;
12535;SDS011;6334;48.696;2.114;2024-03-07T01:12:59;11.30;;;8.00;;
12535;SDS011;6334;48.696;2.114;2024-03-07T01:15:29;11.97;;;8.20;;
12535;SDS011;6334;48.696;2.114;2024-03-07T01:17:59;13.93;;;8.97;;
12535;SDS011;6334;48.696;2.114;2024-03-07T01:20:30;13.43;;;8.77;;
12535;SDS011;6334;48.696;2.114;2024-03-07T01:23:00;13.20;;;8.63;;
12535;SDS011;6334;48.696;2.114;2024-03-07T01:25:31;14.33;;;8.90;;
12535;SDS011;6334;48.696;2.114;2024-03-07T01:28:01;13.87;;;8.97;;
12535;SDS011;6334;48.696;2.114;2024-03-07T01:30:32;12.57;;;8.13;;
12535;SDS011;6334;48.696;2.114;2024-03-07T01:33:02;12.03;;;8.40;;
12535;SDS011;6334;48.696;2.114;2024-03-07T01:35:33;11.87;;;8.27;;
12535;SDS011;6334;48.696;2.114;2024-03-07T01:38:04;13.87;;;8.93;;
12535;SDS011;6334;48.696;2.114;2024-03-07T01:40:35;13.80;;;9.40;;
12535;SDS011;6334;48.696;2.114;2024-03-07T01:43:06;12.53;;;8.37;;
12535;SDS011;6334;48.696;2.114;2024-03-07T01:45:36;14.20;;;9.20;;
12535;SDS011;6334;48.696;2.114;2024-03-07T01:48:08;12.73;;;8.97;;
12535;SDS011;6334;48.696;2.114;2024-03-07T01:50:36;12.10;;;8.47;;
12535;SDS011;6334;48.696;2.114;2024-03-07T01:53:07;12.43;;;8.13;;
12535;SDS011;6334;48.696;2.114;2024-03-07T01:55:37;11.60;;;8.10;;
12535;SDS011;6334;48.696;2.114;2024-03-07T01:58:08;15.23;;;9.27;;
12535;SDS011;6334;48.696;2.114;2024-03-07T02:00:38;12.80;;;8.20;;
12535;SDS011;6334;48.696;2.114;2024-03-07T02:03:09;13.87;;;8.60;;
12535;SDS011;6334;48.696;2.114;2024-03-07T02:05:40;13.63;;;8.67;;
12535;SDS011;6334;48.696;2.114;2024-03-07T02:08:10;11.70;;;7.70;;
12535;SDS011;6334;48.696;2.114;2024-03-07T02:10:41;11.97;;;7.97;;
12535;SDS011;6334;48.696;2.114;2024-03-07T02:13:11;12.83;;;8.27;;
12535;SDS011;6334;48.696;2.114;2024-03-07T02:15:41;12.23;;;8.00;;
12535;SDS011;6334;48.696;2.114;2024-03-07T02:18:12;13.90;;;8.07;;
12535;SDS011;6334;48.696;2.114;2024-03-07T02:20:45;11.53;;;7.80;;
12535;SDS011;6334;48.696;2.114;2024-03-07T02:23:15;12.63;;;7.47;;
12535;SDS011;6334;48.696;2.114;2024-03-07T02:25:46;12.13;;;7.47;;
12535;SDS011;6334;48.696;2.114;2024-03-07T02:28:16;12.87;;;7.47;;
12535;SDS011;6334;48.696;2.114;2024-03-07T02:30:46;11.23;;;7.40;;
12535;SDS011;6334;48.696;2.114;2024-03-07T02:33:17;12.87;;;7.60;;
12535;SDS011;6334;48.696;2.114;2024-03-07T02:35:47;11.70;;;7.67;;
12535;SDS011;6334;48.696;2.114;2024-03-07T02:38:18;10.53;;;6.63;;
12535;SDS011;6334;48.696;2.114;2024-03-07T02:40:48;11.93;;;7.00;;
12535;SDS011;6334;48.696;2.114;2024-03-07T02:43:19;12.40;;;7.53;;
12535;SDS011;6334;48.696;2.114;2024-03-07T02:45:49;14.97;;;6.97;;
12535;SDS011;6334;48.696;2.114;2024-03-07T02:48:20;11.07;;;7.17;;
12535;SDS011;6334;48.696;2.114;2024-03-07T02:50:50;11.43;;;7.57;;
12535;SDS011;6334;48.696;2.114;2024-03-07T02:53:21;12.40;;;6.83;;
12535;SDS011;6334;48.696;2.114;2024-03-07T02:55:51;12.93;;;7.33;;
12535;SDS011;6334;48.696;2.114;2024-03-07T02:58:22;11.13;;;7.20;;
12535;SDS011;6334;48.696;2.114;2024-03-07T03:00:57;10.13;;;6.67;;
12535;SDS011;6334;48.696;2.114;2024-03-07T03:03:25;11.00;;;6.80;;
12535;SDS011;6334;48.696;2.114;2024-03-07T03:05:59;11.40;;;7.20;;
12535;SDS011;6334;48.696;2.114;2024-03-07T03:08:29;12.50;;;7.33;;
12535;SDS011;6334;48.696;2.114;2024-03-07T03:10:59;12.40;;;7.70;;
12535;SDS011;6334;48.696;2.114;2024-03-07T03:13:30;11.13;;;7.47;;
12535;SDS011;6334;48.696;2.114;2024-03-07T03:16:00;10.30;;;7.10;;
12535;SDS011;6334;48.696;2.114;2024-03-07T03:18:30;12.03;;;7.40;;
12535;SDS011;6334;48.696;2.114;2024-03-07T03:21:01;10.70;;;7.00;;
12535;SDS011;6334;48.696;2.114;2024-03-07T03:23:32;10.67;;;7.33;;
12535;SDS011;6334;48.696;2.114;2024-03-07T03:26:02;11.10;;;7.00;;
12535;SDS011;6334;48.696;2.114;2024-03-07T03:28:33;10.40;;;6.93;;
12535;SDS011;6334;48.696;2.114;2024-03-07T03:31:03;11.47;;;7.17;;
12535;SDS011;6334;48.696;2.114;2024-03-07T03:33:34;11.20;;;7.33;;
12535;SDS011;6334;48.696;2.114;2024-03-07T03:36:04;10.23;;;6.40;;
12535;SDS011;6334;48.696;2.114;2024-03-07T03:38:35;10.57;;;6.80;;
12535;SDS011;6334;48.696;2.114;2024-03-07T03:41:05;11.53;;;6.87;;
12535;SDS011;6334;48.696;2.114;2024-03-07T03:43:36;12.27;;;7.33;;
12535;SDS011;6334;48.696;2.114;2024-03-07T03:46:09;9.97;;;6.57;;
12535;SDS011;6334;48.696;2.114;2024-03-07T03:48:38;11.13;;;7.03;;
12535;SDS011;6334;48.696;2.114;2024-03-07T03:51:10;10.50;;;6.90;;
12535;SDS011;6334;48.696;2.114;2024-03-07T03:53:39;13.23;;;7.90;;
12535;SDS011;6334;48.696;2.114;2024-03-07T03:56:10;12.20;;;7.50;;
12535;SDS011;6334;48.696;2.114;2024-03-07T03:58:40;12.30;;;7.50;;
12535;SDS011;6334;48.696;2.114;2024-03-07T04:01:11;11.03;;;7.83;;
12535;SDS011;6334;48.696;2.114;2024-03-07T04:03:41;10.70;;;7.10;;
12535;SDS011;6334;48.696;2.114;2024-03-07T04:06:14;9.43;;;6.40;;
12535;SDS011;6334;48.696;2.114;2024-03-07T04:08:44;13.03;;;7.27;;
12535;SDS011;6334;48.696;2.114;2024-03-07T04:11:14;10.13;;;6.90;;
12535;SDS011;6334;48.696;2.114;2024-03-07T04:13:45;10.70;;;7.23;;
12535;SDS011;6334;48.696;2.114;2024-03-07T04:16:15;10.47;;;6.77;;
12535;SDS011;6334;48.696;2.114;2024-03-07T04:18:46;10.47;;;6.87;;
12535;SDS011;6334;48.696;2.114;2024-03-07T04:21:16;11.53;;;7.10;;
12535;SDS011;6334;48.696;2.114;2024-03-07T04:23:47;9.97;;;6.90;;
12535;SDS011;6334;48.696;2.114;2024-03-07T04:26:17;10.40;;;6.57;;
12535;SDS011;6334;48.696;2.114;2024-03-07T04:28:47;11.17;;;6.63;;
12535;SDS011;6334;48.696;2.114;2024-03-07T04:31:18;10.20;;;6.53;;
12535;SDS011;6334;48.696;2.114;2024-03-07T04:33:48;9.43;;;5.97;;
12535;SDS011;6334;48.696;2.114;2024-03-07T04:36:19;12.20;;;6.37;;
12535;SDS011;6334;48.696;2.114;2024-03-07T04:38:49;12.30;;;7.03;;
12535;SDS011;6334;48.696;2.114;2024-03-07T04:41:20;8.67;;;6.50;;
12535;SDS011;6334;48.696;2.114;2024-03-07T04:43:51;11.00;;;7.00;;
12535;SDS011;6334;48.696;2.114;2024-03-07T04:46:21;8.77;;;6.43;;
12535;SDS011;6334;48.696;2.114;2024-03-07T04:48:53;11.30;;;6.70;;
12535;SDS011;6334;48.696;2.114;2024-03-07T04:51:23;10.60;;;6.83;;
12535;SDS011;6334;48.696;2.114;2024-03-07T04:53:53;12.23;;;7.33;;
12535;SDS011;6334;48.696;2.114;2024-03-07T04:56:24;9.20;;;5.77;;
12535;SDS011;6334;48.696;2.114;2024-03-07T04:58:54;10.40;;;6.50;;
12535;SDS011;6334;48.696;2.114;2024-03-07T05:01:25;9.90;;;6.40;;
12535;SDS011;6334;48.696;2.114;2024-03-07T05:03:55;10.77;;;7.10;;
12535;SDS011;6334;48.696;2.114;2024-03-07T05:06:26;11.20;;;6.57;;
12535;SDS011;6334;48.696;2.114;2024-03-07T05:08:56;9.30;;;6.20;;
12535;SDS011;6334;48.696;2.114;2024-03-07T05:11:30;11.73;;;6.23;;
12535;SDS011;6334;48.696;2.114;2024-03-07T05:14:00;8.30;;;6.03;;
12535;SDS011;6334;48.696;2.114;2024-03-07T05:16:30;10.57;;;5.73;;
12535;SDS011;6334;48.696;2.114;2024-03-07T05:19:01;11.60;;;6.20;;
12535;SDS011;6334;48.696;2.114;2024-03-07T05:21:31;8.60;;;5.50;;
12535;SDS011;6334;48.696;2.114;2024-03-07T05:24:04;9.17;;;5.90;;
12535;SDS011;6334;48.696;2.114;2024-03-07T05:26:35;11.47;;;6.03;;
12535;SDS011;6334;48.696;2.114;2024-03-07T05:29:08;10.63;;;6.07;;
12535;SDS011;6334;48.696;2.114;2024-03-07T05:31:37;8.97;;;5.93;;
12535;SDS011;6334;48.696;2.114;2024-03-07T05:34:11;10.00;;;6.20;;
12535;SDS011;6334;48.696;2.114;2024-03-07T05:36:42;8.83;;;6.23;;
12535;SDS011;6334;48.696;2.114;2024-03-07T05:39:12;9.67;;;6.53;;
12535;SDS011;6334;48.696;2.114;2024-03-07T05:41:43;9.13;;;6.23;;
12535;SDS011;6334;48.696;2.114;2024-03-07T05:44:13;10.30;;;6.73;;
12535;SDS011;6334;48.696;2.114;2024-03-07T05:46:44;11.63;;;6.80;;
12535;SDS011;6334;48.696;2.114;2024-03-07T05:49:14;10.63;;;6.47;;
12535;SDS011;6334;48.696;2.114;2024-03-07T05:51:45;10.07;;;6.67;;
12535;SDS011;6334;48.696;2.114;2024-03-07T05:54:15;9.00;;;6.30;;
12535;SDS011;6334;48.696;2.114;2024-03-07T05:56:45;10.13;;;6.70;;
12535;SDS011;6334;48.696;2.114;2024-03-07T05:59:16;10.87;;;6.70;;
12535;SDS011;6334;48.696;2.114;2024-03-07T06:01:47;11.63;;;6.33;;
12535;SDS011;6334;48.696;2.114;2024-03-07T06:04:17;9.53;;;5.97;;
12535;SDS011;6334;48.696;2.114;2024-03-07T06:06:47;9.87;;;6.23;;
12535;SDS011;6334;48.696;2.114;2024-03-07T06:09:18;11.20;;;6.93;;
12535;SDS011;6334;48.696;2.114;2024-03-07T06:11:48;10.67;;;7.40;;
12535;SDS011;6334;48.696;2.114;2024-03-07T06:14:19;10.90;;;7.20;;
12535;SDS011;6334;48.696;2.114;2024-03-07T06:16:49;12.33;;;7.10;;
12535;SDS011;6334;48.696;2.114;2024-03-07T06:19:20;11.40;;;7.53;;
12535;SDS011;6334;48.696;2.114;2024-03-07T06:21:50;10.03;;;6.67;;
12535;SDS011;6334;48.696;2.114;2024-03-07T06:24:20;14.13;;;9.20;;
12535;SDS011;6334;48.696;2.114;2024-03-07T06:26:51;25.37;;;16.77;;
12535;SDS011;6334;48.696;2.114;2024-03-07T06:29:27;19.63;;;12.83;;
12535;SDS011;6334;48.696;2.114;2024-03-07T06:31:58;19.27;;;12.33;;
12535;SDS011;6334;48.696;2.114;2024-03-07T06:34:28;15.67;;;9.60;;
12535;SDS011;6334;48.696;2.114;2024-03-07T06:36:59;13.37;;;7.63;;
12535;SDS011;6334;48.696;2.114;2024-03-07T06:39:30;10.90;;;7.53;;
12535;SDS011;6334;48.696;2.114;2024-03-07T06:42:01;9.77;;;6.70;;
12535;SDS011;6334;48.696;2.114;2024-03-07T06:44:31;9.53;;;6.40;;
12535;SDS011;6334;48.696;2.114;2024-03-07T06:47:02;7.67;;;5.27;;
12535;SDS011;6334;48.696;2.114;2024-03-07T06:49:32;9.63;;;6.30;;
12535;SDS011;6334;48.696;2.114;2024-03-07T06:52:03;11.43;;;6.80;;
12535;SDS011;6334;48.696;2.114;2024-03-07T06:54:33;9.53;;;6.20;;
12535;SDS011;6334;48.696;2.114;2024-03-07T06:57:04;10.27;;;6.57;;
12535;SDS011;6334;48.696;2.114;2024-03-07T06:59:34;12.97;;;7.17;;
12535;SDS011;6334;48.696;2.114;2024-03-07T07:02:05;13.63;;;6.87;;
12535;SDS011;6334;48.696;2.114;2024-03-07T07:04:35;11.83;;;7.00;;
12535;SDS011;6334;48.696;2.114;2024-03-07T07:07:08;12.40;;;6.73;;
12535;SDS011;6334;48.696;2.114;2024-03-07T07:09:39;9.67;;;6.53;;
12535;SDS011;6334;48.696;2.114;2024-03-07T07:12:09;10.03;;;6.07;;
12535;SDS011;6334;48.696;2.114;2024-03-07T07:14:40;9.17;;;6.37;;
12535;SDS011;6334;48.696;2.114;2024-03-07T07:17:10;10.17;;;6.40;;
12535;SDS011;6334;48.696;2.114;2024-03-07T07:19:41;10.23;;;6.13;;
12535;SDS011;6334;48.696;2.114;2024-03-07T07:22:11;8.63;;;6.03;;
12535;SDS011;6334;48.696;2.114;2024-03-07T07:24:42;11.47;;;6.23;;
12535;SDS011;6334;48.696;2.114;2024-03-07T07:27:12;11.40;;;6.53;;
12535;SDS011;6334;48.696;2.114;2024-03-07T07:29:43;9.80;;;6.10;;
12535;SDS011;6334;48.696;2.114;2024-03-07T07:32:13;10.23;;;6.30;;
12535;SDS011;6334;48.696;2.114;2024-03-07T07:34:43;11.30;;;6.33;;
12535;SDS011;6334;48.696;2.114;2024-03-07T07:37:14;11.70;;;6.00;;
12535;SDS011;6334;48.696;2.114;2024-03-07T07:39:44;8.50;;;5.67;;
12535;SDS011;6334;48.696;2.114;2024-03-07T07:42:14;9.03;;;5.83;;
12535;SDS011;6334;48.696;2.114;2024-03-07T07:44:45;8.97;;;5.90;;
12535;SDS011;6334;48.696;2.114;2024-03-07T07:47:15;8.67;;;5.60;;
12535;SDS011;6334;48.696;2.114;2024-03-07T07:49:45;8.60;;;5.83;;
12535;SDS011;6334;48.696;2.114;2024-03-07T07:52:16;9.30;;;5.80;;
12535;SDS011;6334;48.696;2.114;2024-03-07T07:54:47;8.93;;;5.63;;
12535;SDS011;6334;48.696;2.114;2024-03-07T07:57:18;12.70;;;6.57;;
12535;SDS011;6334;48.696;2.114;2024-03-07T07:59:48;8.40;;;5.80;;
12535;SDS011;6334;48.696;2.114;2024-03-07T08:02:19;11.57;;;6.13;;
12535;SDS011;6334;48.696;2.114;2024-03-07T08:04:49;10.47;;;6.17;;
12535;SDS011;6334;48.696;2.114;2024-03-07T08:07:20;9.70;;;5.93;;
12535;SDS011;6334;48.696;2.114;2024-03-07T08:09:50;9.60;;;5.70;;
12535;SDS011;6334;48.696;2.114;2024-03-07T08:12:21;9.47;;;5.93;;
12535;SDS011;6334;48.696;2.114;2024-03-07T08:14:51;10.10;;;6.17;;
12535;SDS011;6334;48.696;2.114;2024-03-07T08:17:21;9.10;;;5.17;;
12535;SDS011;6334;48.696;2.114;2024-03-07T08:19:52;10.13;;;5.57;;
12535;SDS011;6334;48.696;2.114;2024-03-07T08:22:22;10.53;;;5.67;;
12535;SDS011;6334;48.696;2.114;2024-03-07T08:24:53;11.13;;;5.80;;
12535;SDS011;6334;48.696;2.114;2024-03-07T08:27:23;7.90;;;5.40;;
12535;SDS011;6334;48.696;2.114;2024-03-07T08:29:54;14.37;;;6.00;;
12535;SDS011;6334;48.696;2.114;2024-03-07T08:32:24;8.20;;;5.30;;
12535;SDS011;6334;48.696;2.114;2024-03-07T08:34:55;10.40;;;6.00;;
12535;SDS011;6334;48.696;2.114;2024-03-07T08:37:25;10.20;;;5.97;;
12535;SDS011;6334;48.696;2.114;2024-03-07T08:39:56;11.43;;;5.87;;
12535;SDS011;6334;48.696;2.114;2024-03-07T08:42:26;12.03;;;5.90;;
12535;SDS011;6334;48.696;2.114;2024-03-07T08:44:56;13.00;;;6.60;;
12535;SDS011;6334;48.696;2.114;2024-03-07T08:47:27;9.50;;;5.90;;
12535;SDS011;6334;48.696;2.114;2024-03-07T08:49:58;10.37;;;6.03;;
12535;SDS011;6334;48.696;2.114;2024-03-07T08:52:28;10.47;;;5.97;;
12535;SDS011;6334;48.696;2.114;2024-03-07T08:54:59;7.93;;;5.53;;
12535;SDS011;6334;48.696;2.114;2024-03-07T08:57:29;10.20;;;6.33;;
12535;SDS011;6334;48.696;2.114;2024-03-07T09:00:00;10.30;;;6.20;;
12535;SDS011;6334;48.696;2.114;2024-03-07T09:02:30;8.57;;;5.70;;
12535;SDS011;6334;48.696;2.114;2024-03-07T09:05:03;11.13;;;6.43;;
12535;SDS011;6334;48.696;2.114;2024-03-07T09:07:34;9.03;;;6.13;;
12535;SDS011;6334;48.696;2.114;2024-03-07T09:10:04;10.17;;;6.43;;
12535;SDS011;6334;48.696;2.114;2024-03-07T09:12:35;10.37;;;6.43;;
12535;SDS011;6334;48.696;2.114;2024-03-07T09:15:05;10.77;;;6.67;;
12535;SDS011;6334;48.696;2.114;2024-03-07T09:17:39;9.87;;;6.17;;
12535;SDS011;6334;48.696;2.114;2024-03-07T09:20:09;11.30;;;6.30;;
12535;SDS011;6334;48.696;2.114;2024-03-07T09:22:42;11.33;;;6.70;;
12535;SDS011;6334;48.696;2.114;2024-03-07T09:25:13;10.93;;;6.33;;
12535;SDS011;6334;48.696;2.114;2024-03-07T09:27:43;9.83;;;6.20;;
12535;SDS011;6334;48.696;2.114;2024-03-07T09:30:14;9.87;;;6.40;;
12535;SDS011;6334;48.696;2.114;2024-03-07T09:32:44;9.27;;;5.97;;
12535;SDS011;6334;48.696;2.114;2024-03-07T09:35:14;11.23;;;5.90;;
12535;SDS011;6334;48.696;2.114;2024-03-07T09:37:45;11.10;;;5.77;;
12535;SDS011;6334;48.696;2.114;2024-03-07T09:40:15;9.30;;;5.57;;
12535;SDS011;6334;48.696;2.114;2024-03-07T09:42:46;11.67;;;6.13;;
12535;SDS011;6334;48.696;2.114;2024-03-07T09:45:17;10.10;;;5.43;;
12535;SDS011;6334;48.696;2.114;2024-03-07T09:47:48;7.50;;;5.27;;
12535;SDS011;6334;48.696;2.114;2024-03-07T09:50:18;8.33;;;5.10;;
12535;SDS011;6334;48.696;2.114;2024-03-07T09:52:48;9.33;;;5.23;;
12535;SDS011;6334;48.696;2.114;2024-03-07T09:55:18;7.43;;;5.20;;
12535;SDS011;6334;48.696;2.114;2024-03-07T09:57:49;8.30;;;5.13;;
12535;SDS011;6334;48.696;2.114;2024-03-07T10:00:19;8.43;;;4.90;;
12535;SDS011;6334;48.696;2.114;2024-03-07T10:02:51;8.53;;;5.07;;
12535;SDS011;6334;48.696;2.114;2024-03-07T10:05:28;7.83;;;4.80;;
12535;SDS011;6334;48.696;2.114;2024-03-07T10:07:59;7.57;;;4.67;;
12535;SDS011;6334;48.696;2.114;2024-03-07T10:10:29;6.13;;;4.57;;
12535;SDS011;6334;48.696;2.114;2024-03-07T10:13:00;6.17;;;4.60;;
12535;SDS011;6334;48.696;2.114;2024-03-07T10:15:31;6.93;;;4.50;;
12535;SDS011;6334;48.696;2.114;2024-03-07T10:18:01;7.93;;;5.10;;
12535;SDS011;6334;48.696;2.114;2024-03-07T10:20:31;7.80;;;5.10;;
12535;SDS011;6334;48.696;2.114;2024-03-07T10:23:02;7.70;;;4.93;;
12535;SDS011;6334;48.696;2.114;2024-03-07T10:25:35;9.50;;;5.60;;
12535;SDS011;6334;48.696;2.114;2024-03-07T10:28:05;6.97;;;4.90;;
12535;SDS011;6334;48.696;2.114;2024-03-07T10:30:41;8.47;;;5.23;;
12535;SDS011;6334;48.696;2.114;2024-03-07T10:33:12;9.07;;;5.57;;
12535;SDS011;6334;48.696;2.114;2024-03-07T10:35:42;13.33;;;5.90;;
12535;SDS011;6334;48.696;2.114;2024-03-07T10:38:12;10.00;;;5.87;;
12535;SDS011;6334;48.696;2.114;2024-03-07T10:40:43;9.40;;;5.83;;
12535;SDS011;6334;48.696;2.114;2024-03-07T10:43:13;9.93;;;5.73;;
12535;SDS011;6334;48.696;2.114;2024-03-07T10:45:44;9.30;;;6.20;;
12535;SDS011;6334;48.696;2.114;2024-03-07T10:48:20;13.43;;;7.17;;
12535;SDS011;6334;48.696;2.114;2024-03-07T10:51:06;12.03;;;6.80;;
12535;SDS011;6334;48.696;2.114;2024-03-07T10:53:59;13.97;;;7.93;;
12535;SDS011;6334;48.696;2.114;2024-03-07T10:59:13;12.80;;;7.20;;
12535;SDS011;6334;48.696;2.114;2024-03-07T11:01:45;11.90;;;7.37;;
12535;SDS011;6334;48.696;2.114;2024-03-07T11:04:20;13.43;;;7.40;;
12535;SDS011;6334;48.696;2.114;2024-03-07T11:06:50;12.67;;;7.20;;
12535;SDS011;6334;48.696;2.114;2024-03-07T11:09:20;13.33;;;7.80;;
12535;SDS011;6334;48.696;2.114;2024-03-07T11:11:51;14.60;;;8.23;;
12535;SDS011;6334;48.696;2.114;2024-03-07T11:14:21;15.27;;;9.93;;
12535;SDS011;6334;48.696;2.114;2024-03-07T11:16:52;17.53;;;10.70;;
12535;SDS011;6334;48.696;2.114;2024-03-07T11:19:25;18.53;;;11.23;;
12535;SDS011;6334;48.696;2.114;2024-03-07T11:21:58;20.20;;;11.03;;
12535;SDS011;6334;48.696;2.114;2024-03-07T11:24:31;20.03;;;11.73;;
12535;SDS011;6334;48.696;2.114;2024-03-07T11:27:03;18.50;;;11.10;;
12535;SDS011;6334;48.696;2.114;2024-03-07T11:29:43;19.23;;;11.60;;
12535;SDS011;6334;48.696;2.114;2024-03-07T11:32:10;18.57;;;11.27;;
12535;SDS011;6334;48.696;2.114;2024-03-07T11:34:41;20.97;;;11.50;;
12535;SDS011;6334;48.696;2.114;2024-03-07T11:37:16;17.63;;;11.00;;
12535;SDS011;6334;48.696;2.114;2024-03-07T11:39:44;19.77;;;12.10;;
12535;SDS011;6334;48.696;2.114;2024-03-07T11:42:24;19.17;;;11.13;;
12535;SDS011;6334;48.696;2.114;2024-03-07T11:44:56;17.10;;;10.67;;
12535;SDS011;6334;48.696;2.114;2024-03-07T11:47:26;17.80;;;11.00;;
12535;SDS011;6334;48.696;2.114;2024-03-07T11:49:56;17.73;;;10.47;;
12535;SDS011;6334;48.696;2.114;2024-03-07T11:52:27;19.03;;;10.97;;
12535;SDS011;6334;48.696;2.114;2024-03-07T11:54:57;18.00;;;11.17;;
12535;SDS011;6334;48.696;2.114;2024-03-07T11:57:31;19.23;;;12.30;;
12535;SDS011;6334;48.696;2.114;2024-03-07T12:00:01;19.63;;;12.20;;
12535;SDS011;6334;48.696;2.114;2024-03-07T12:02:38;19.77;;;12.43;;
12535;SDS011;6334;48.696;2.114;2024-03-07T12:05:08;18.03;;;11.33;;
12535;SDS011;6334;48.696;2.114;2024-03-07T12:07:38;21.03;;;13.37;;
12535;SDS011;6334;48.696;2.114;2024-03-07T12:10:09;20.23;;;12.40;;
12535;SDS011;6334;48.696;2.114;2024-03-07T12:12:39;20.47;;;12.37;;
12535;SDS011;6334;48.696;2.114;2024-03-07T12:15:10;20.53;;;12.77;;
12535;SDS011;6334;48.696;2.114;2024-03-07T12:17:43;18.80;;;12.07;;
12535;SDS011;6334;48.696;2.114;2024-03-07T12:20:13;17.90;;;11.63;;
12535;SDS011;6334;48.696;2.114;2024-03-07T12:22:56;19.67;;;12.27;;
12535;SDS011;6334;48.696;2.114;2024-03-07T12:25:26;19.90;;;12.10;;
12535;SDS011;6334;48.696;2.114;2024-03-07T12:27:59;20.63;;;12.13;;
12535;SDS011;6334;48.696;2.114;2024-03-07T12:30:31;19.43;;;12.00;;
12535;SDS011;6334;48.696;2.114;2024-03-07T12:33:02;19.73;;;12.60;;
12535;SDS011;6334;48.696;2.114;2024-03-07T12:35:33;18.30;;;11.43;;
12535;SDS011;6334;48.696;2.114;2024-03-07T12:38:03;16.00;;;10.43;;
12535;SDS011;6334;48.696;2.114;2024-03-07T12:40:34;17.43;;;11.00;;
12535;SDS011;6334;48.696;2.114;2024-03-07T12:43:37;16.77;;;10.87;;
12535;SDS011;6334;48.696;2.114;2024-03-07T12:48:18;18.27;;;10.67;;
12535;SDS011;6334;48.696;2.114;2024-03-07T12:50:49;18.63;;;11.87;;
12535;SDS011;6334;48.696;2.114;2024-03-07T12:53:22;16.70;;;10.80;;
12535;SDS011;6334;48.696;2.114;2024-03-07T12:55:52;17.67;;;11.23;;
12535;SDS011;6334;48.696;2.114;2024-03-07T12:58:23;17.93;;;11.07;;
12535;SDS011;6334;48.696;2.114;2024-03-07T13:00:54;16.90;;;10.90;;
12535;SDS011;6334;48.696;2.114;2024-03-07T13:03:27;20.00;;;11.67;;
12535;SDS011;6334;48.696;2.114;2024-03-07T13:05:57;16.23;;;10.70;;
12535;SDS011;6334;48.696;2.114;2024-03-07T13:08:28;16.20;;;10.33;;
12535;SDS011;6334;48.696;2.114;2024-03-07T13:10:58;17.40;;;11.13;;
12535;SDS011;6334;48.696;2.114;2024-03-07T13:13:28;16.70;;;10.50;;
12535;SDS011;6334;48.696;2.114;2024-03-07T13:15:59;16.50;;;10.40;;
12535;SDS011;6334;48.696;2.114;2024-03-07T13:18:29;16.77;;;10.37;;
12535;SDS011;6334;48.696;2.114;2024-03-07T13:21:00;14.67;;;9.10;;
12535;SDS011;6334;48.696;2.114;2024-03-07T13:23:30;17.10;;;10.17;;
12535;SDS011;6334;48.696;2.114;2024-03-07T13:26:01;16.27;;;10.10;;
12535;SDS011;6334;48.696;2.114;2024-03-07T13:28:31;15.93;;;9.73;;
12535;SDS011;6334;48.696;2.114;2024-03-07T13:31:02;16.00;;;9.83;;
12535;SDS011;6334;48.696;2.114;2024-03-07T13:33:32;16.40;;;10.07;;
12535;SDS011;6334;48.696;2.114;2024-03-07T13:36:03;15.07;;;9.17;;
12535;SDS011;6334;48.696;2.114;2024-03-07T13:38:33;15.13;;;9.20;;
12535;SDS011;6334;48.696;2.114;2024-03-07T13:41:03;15.30;;;9.40;;
12535;SDS011;6334;48.696;2.114;2024-03-07T13:43:35;14.00;;;8.97;;
12535;SDS011;6334;48.696;2.114;2024-03-07T13:46:05;16.47;;;10.73;;
12535;SDS011;6334;48.696;2.114;2024-03-07T13:48:36;15.23;;;9.50;;
12535;SDS011;6334;48.696;2.114;2024-03-07T13:51:06;16.57;;;10.30;;
12535;SDS011;6334;48.696;2.114;2024-03-07T13:53:37;16.50;;;9.20;;
12535;SDS011;6334;48.696;2.114;2024-03-07T13:59:05;17.47;;;9.37;;
12535;SDS011;6334;48.696;2.114;2024-03-07T14:01:37;14.40;;;9.43;;
12535;SDS011;6334;48.696;2.114;2024-03-07T14:15:51;15.17;;;8.97;;
12535;SDS011;6334;48.696;2.114;2024-03-07T14:27:16;15.93;;;9.27;;
12535;SDS011;6334;48.696;2.114;2024-03-07T14:32:40;13.83;;;8.40;;
12535;SDS011;6334;48.696;2.114;2024-03-07T14:35:17;15.07;;;9.13;;
12535;SDS011;6334;48.696;2.114;2024-03-07T14:40:33;14.67;;;9.20;;
12535;SDS011;6334;48.696;2.114;2024-03-07T14:43:04;15.13;;;9.23;;
12535;SDS011;6334;48.696;2.114;2024-03-07T14:45:37;14.00;;;8.93;;
12535;SDS011;6334;48.696;2.114;2024-03-07T14:48:07;15.33;;;9.30;;
12535;SDS011;6334;48.696;2.114;2024-03-07T14:50:38;14.00;;;8.50;;
12535;SDS011;6334;48.696;2.114;2024-03-07T14:53:08;16.17;;;9.23;;
12535;SDS011;6334;48.696;2.114;2024-03-07T14:55:39;15.17;;;9.33;;
12535;SDS011;6334;48.696;2.114;2024-03-07T14:58:09;14.27;;;9.27;;
12535;SDS011;6334;48.696;2.114;2024-03-07T15:00:39;15.37;;;8.50;;
12535;SDS011;6334;48.696;2.114;2024-03-07T15:03:11;15.17;;;9.60;;
12535;SDS011;6334;48.696;2.114;2024-03-07T15:05:41;16.27;;;9.67;;
12535;SDS011;6334;48.696;2.114;2024-03-07T15:08:13;15.50;;;9.60;;
12535;SDS011;6334;48.696;2.114;2024-03-07T15:10:45;16.20;;;9.57;;
12535;SDS011;6334;48.696;2.114;2024-03-07T15:13:14;13.80;;;8.53;;
12535;SDS011;6334;48.696;2.114;2024-03-07T15:15:45;15.93;;;9.90;;
12535;SDS011;6334;48.696;2.114;2024-03-07T15:18:15;14.57;;;9.13;;
12535;SDS011;6334;48.696;2.114;2024-03-07T15:20:46;15.03;;;9.50;;
12535;SDS011;6334;48.696;2.114;2024-03-07T15:23:16;17.03;;;10.53;;
12535;SDS011;6334;48.696;2.114;2024-03-07T15:25:47;16.43;;;10.13;;
12535;SDS011;6334;48.696;2.114;2024-03-07T15:28:17;15.17;;;10.10;;
12535;SDS011;6334;48.696;2.114;2024-03-07T15:30:47;15.73;;;10.60;;
12535;SDS011;6334;48.696;2.114;2024-03-07T15:33:18;16.83;;;10.00;;
12535;SDS011;6334;48.696;2.114;2024-03-07T15:35:48;17.23;;;10.33;;
12535;SDS011;6334;48.696;2.114;2024-03-07T15:38:19;15.40;;;10.20;;
12535;SDS011;6334;48.696;2.114;2024-03-07T15:40:49;16.53;;;10.53;;
12535;SDS011;6334;48.696;2.114;2024-03-07T15:43:20;16.63;;;10.23;;